createdAt,value
2023-04-02T00:00:59.880Z,991.25
2023-04-02T00:02:00.007Z,991.27
2023-04-02T00:03:00.115Z,991.26
2023-04-02T00:04:00.172Z,991.31
2023-04-02T00:05:00.225Z,991.31
2023-04-02T00:06:00.277Z,991.33
2023-04-02T00:07:00.364Z,991.33
2023-04-02T00:08:00.475Z,991.34
2023-04-02T00:09:00.530Z,991.35
2023-04-02T00:10:00.649Z,991.38
2023-04-02T00:11:00.718Z,991.40
2023-04-02T00:12:00.815Z,991.40
2023-04-02T00:13:00.903Z,991.41
2023-04-02T00:14:01.009Z,991.41
2023-04-02T00:15:01.091Z,991.41
2023-04-02T00:16:01.200Z,991.44
2023-04-02T00:17:01.243Z,991.43
2023-04-02T00:18:01.347Z,991.45
2023-04-02T00:19:01.421Z,991.46
2023-04-02T00:20:01.555Z,991.51
2023-04-02T00:21:01.553Z,991.51
2023-04-02T00:22:01.647Z,991.56
2023-04-02T00:23:01.752Z,991.60
2023-04-02T00:24:01.834Z,991.58
2023-04-02T00:25:01.943Z,991.53
2023-04-02T00:26:02.001Z,991.62
2023-04-02T00:27:02.080Z,991.62
2023-04-02T00:28:02.186Z,991.66
2023-04-02T00:29:02.268Z,991.65
2023-04-02T00:30:02.387Z,991.67
2023-04-02T00:31:02.406Z,991.67
2023-04-02T00:32:02.546Z,991.69
2023-04-02T00:33:02.626Z,991.71
2023-04-02T00:34:02.673Z,991.70
2023-04-02T00:35:02.779Z,991.76
2023-04-02T00:36:02.871Z,991.76
2023-04-02T00:37:02.915Z,991.80
2023-04-02T00:38:03.017Z,991.80
2023-04-02T00:39:03.086Z,991.79
2023-04-02T00:40:03.179Z,991.83
2023-04-02T00:41:03.226Z,991.82
2023-04-02T00:42:03.305Z,991.85
2023-04-02T00:43:03.362Z,991.86
2023-04-02T00:44:03.467Z,991.81
2023-04-02T00:45:03.544Z,991.88
2023-04-02T00:46:03.678Z,991.86
2023-04-02T00:47:03.728Z,991.88
2023-04-02T00:48:03.880Z,991.92
2023-04-02T00:49:03.903Z,991.95
2023-04-02T00:50:04.030Z,991.95
2023-04-02T00:51:04.101Z,991.94
2023-04-02T00:52:04.178Z,991.98
2023-04-02T00:53:04.222Z,991.95
2023-04-02T00:54:04.303Z,991.97
2023-04-02T00:55:04.670Z,991.96
2023-04-02T00:56:04.467Z,992.00
2023-04-02T00:57:04.545Z,991.99
2023-04-02T00:58:04.640Z,992.01
2023-04-02T00:59:04.681Z,992.02
2023-04-02T01:00:04.796Z,991.99
2023-04-02T01:01:04.860Z,992.07
2023-04-02T01:02:04.919Z,992.05
2023-04-02T01:03:05.088Z,992.05
2023-04-02T01:04:05.063Z,992.06
2023-04-02T01:05:05.163Z,992.09
2023-04-02T01:06:05.227Z,992.09
2023-04-02T01:07:05.317Z,992.14
2023-04-02T01:08:05.386Z,992.17
2023-04-02T01:09:05.445Z,992.16
2023-04-02T01:10:05.560Z,992.15
2023-04-02T01:11:05.569Z,992.16
2023-04-02T01:12:05.688Z,992.22
2023-04-02T01:13:05.731Z,992.22
2023-04-02T01:14:05.824Z,992.24
2023-04-02T01:15:05.911Z,992.24
2023-04-02T01:16:06.064Z,992.26
2023-04-02T01:17:06.061Z,992.25
2023-04-02T01:18:06.178Z,992.28
2023-04-02T01:19:06.227Z,992.27
2023-04-02T01:20:06.354Z,992.27
2023-04-02T01:21:06.456Z,992.33
2023-04-02T01:22:06.498Z,992.32
2023-04-02T01:23:06.568Z,992.35
2023-04-02T01:24:06.638Z,992.33
2023-04-02T01:25:06.716Z,992.39
2023-04-02T01:26:06.781Z,992.37
2023-04-02T01:27:06.828Z,992.38
2023-04-02T01:28:06.932Z,992.41
2023-04-02T01:29:07.024Z,992.42
2023-04-02T01:30:07.121Z,992.47
2023-04-02T01:31:07.240Z,992.47
2023-04-02T01:32:07.287Z,992.48
2023-04-02T01:33:07.425Z,992.47
2023-04-02T01:34:07.444Z,992.52
2023-04-02T01:35:07.524Z,992.53
2023-04-02T01:36:07.597Z,992.58
2023-04-02T01:37:07.712Z,992.58
2023-04-02T01:38:07.740Z,992.58
2023-04-02T01:39:07.833Z,992.62
2023-04-02T01:40:09.428Z,992.65
2023-04-02T01:41:07.993Z,992.67
2023-04-02T01:42:08.052Z,992.67
2023-04-02T01:43:08.140Z,992.68
2023-04-02T01:44:08.233Z,992.73
2023-04-02T01:45:08.309Z,992.71
2023-04-02T01:46:08.418Z,992.73
2023-04-02T01:47:08.504Z,992.74
2023-04-02T01:48:08.581Z,992.76
2023-04-02T01:49:08.661Z,992.81
2023-04-02T01:50:08.749Z,992.80
2023-04-02T01:51:08.863Z,992.85
2023-04-02T01:52:08.901Z,992.84
2023-04-02T01:53:08.996Z,992.85
2023-04-02T01:54:09.049Z,992.87
2023-04-02T01:55:09.151Z,992.92
2023-04-02T01:56:09.251Z,992.93
2023-04-02T01:57:09.367Z,992.95
2023-04-02T01:58:09.383Z,992.95
2023-04-02T01:59:09.486Z,992.98
2023-04-02T02:00:09.593Z,992.99
2023-04-02T02:01:09.738Z,993.00
2023-04-02T02:02:09.754Z,993.01
2023-04-02T02:03:09.856Z,993.05
2023-04-02T02:04:09.879Z,993.10
2023-04-02T02:05:09.953Z,993.06
2023-04-02T02:06:10.056Z,993.13
2023-04-02T02:07:10.127Z,993.15
2023-04-02T02:08:10.183Z,993.14
2023-04-02T02:09:10.271Z,993.19
2023-04-02T02:10:10.333Z,993.20
2023-04-02T02:11:10.462Z,993.21
2023-04-02T02:12:10.476Z,993.22
2023-04-02T02:13:10.574Z,993.22
2023-04-02T02:14:10.636Z,993.26
2023-04-02T02:15:10.721Z,993.26
2023-04-02T02:16:10.838Z,993.33
2023-04-02T02:17:10.862Z,993.32
2023-04-02T02:18:10.947Z,993.33
2023-04-02T02:19:11.038Z,993.35
2023-04-02T02:20:11.150Z,993.37
2023-04-02T02:21:11.245Z,993.40
2023-04-02T02:22:11.289Z,993.42
2023-04-02T02:23:11.376Z,993.45
2023-04-02T02:24:11.456Z,993.48
2023-04-02T02:25:11.558Z,993.46
2023-04-02T02:26:11.657Z,993.51
2023-04-02T02:27:11.748Z,993.52
2023-04-02T02:28:11.831Z,993.54
2023-04-02T02:29:11.981Z,993.57
2023-04-02T02:30:11.997Z,993.60
2023-04-02T02:31:12.111Z,993.59
2023-04-02T02:32:12.205Z,993.62
2023-04-02T02:33:12.246Z,993.66
2023-04-02T02:34:12.336Z,993.65
2023-04-02T02:35:12.450Z,993.70
2023-04-02T02:36:12.558Z,993.69
2023-04-02T02:37:12.592Z,993.77
2023-04-02T02:38:12.664Z,993.76
2023-04-02T02:39:12.751Z,993.73
2023-04-02T02:40:12.842Z,993.78
2023-04-02T02:41:12.947Z,993.80
2023-04-02T02:42:12.984Z,993.86
2023-04-02T02:43:13.070Z,993.88
2023-04-02T02:44:13.147Z,993.90
2023-04-02T02:45:13.244Z,993.87
2023-04-02T02:46:13.359Z,993.96
2023-04-02T02:47:13.388Z,993.95
2023-04-02T02:48:13.472Z,993.92
2023-04-02T02:49:13.545Z,993.98
2023-04-02T02:50:13.608Z,994.00
2023-04-02T02:51:14.553Z,994.05
2023-04-02T02:52:13.757Z,994.07
2023-04-02T02:53:13.839Z,994.09
2023-04-02T02:54:13.912Z,994.12
2023-04-02T02:55:14.006Z,994.08
2023-04-02T02:56:14.112Z,994.15
2023-04-02T02:57:14.207Z,994.15
2023-04-02T02:58:14.226Z,994.18
2023-04-02T02:59:14.319Z,994.22
2023-04-02T03:00:14.410Z,994.22
2023-04-02T03:01:14.569Z,994.24
2023-04-02T03:02:14.575Z,994.28
2023-04-02T03:03:14.869Z,994.29
2023-04-02T03:04:14.796Z,994.30
2023-04-02T03:05:14.813Z,994.31
2023-04-02T03:06:14.924Z,994.37
2023-04-02T03:07:14.987Z,994.40
2023-04-02T03:08:15.081Z,994.43
2023-04-02T03:09:15.158Z,994.43
2023-04-02T03:10:15.266Z,994.46
2023-04-02T03:11:15.334Z,994.46
2023-04-02T03:12:15.396Z,994.52
2023-04-02T03:13:15.477Z,994.52
2023-04-02T03:14:15.566Z,994.53
2023-04-02T03:15:15.660Z,994.52
2023-04-02T03:16:15.775Z,994.56
2023-04-02T03:17:15.826Z,994.60
2023-04-02T03:18:15.933Z,994.63
2023-04-02T03:19:15.991Z,994.63
2023-04-02T03:20:16.124Z,994.65
2023-04-02T03:21:16.210Z,994.63
2023-04-02T03:22:16.281Z,994.65
2023-04-02T03:23:17.950Z,994.68
2023-04-02T03:24:16.437Z,994.67
2023-04-02T03:25:16.507Z,994.71
2023-04-02T03:26:16.627Z,994.76
2023-04-02T03:27:16.691Z,994.78
2023-04-02T03:28:16.787Z,994.78
2023-04-02T03:29:16.898Z,994.80
2023-04-02T03:30:16.961Z,994.80
2023-04-02T03:31:17.145Z,994.82
2023-04-02T03:32:17.133Z,994.81
2023-04-02T03:33:17.207Z,994.83
2023-04-02T03:34:17.291Z,994.84
2023-04-02T03:35:17.364Z,994.87
2023-04-02T03:36:17.557Z,994.89
2023-04-02T03:37:17.554Z,994.91
2023-04-02T03:38:17.631Z,994.91
2023-04-02T03:39:17.718Z,994.96
2023-04-02T03:40:17.808Z,994.90
2023-04-02T03:41:17.900Z,994.99
2023-04-02T03:42:17.974Z,994.98
2023-04-02T03:43:18.045Z,995.03
2023-04-02T03:44:18.126Z,995.01
2023-04-02T03:45:18.201Z,995.06
2023-04-02T03:46:18.365Z,995.06
2023-04-02T03:47:18.360Z,995.09
2023-04-02T03:48:18.478Z,995.10
2023-04-02T03:49:18.527Z,995.13
2023-04-02T03:50:18.598Z,995.10
2023-04-02T03:51:18.695Z,995.16
2023-04-02T03:52:18.776Z,995.20
2023-04-02T03:53:18.831Z,995.23
2023-04-02T03:54:18.912Z,995.20
2023-04-02T03:55:18.981Z,995.25
2023-04-02T03:56:19.059Z,995.27
2023-04-02T03:57:19.123Z,995.31
2023-04-02T03:58:19.204Z,995.30
2023-04-02T03:59:19.292Z,995.37
2023-04-02T04:00:19.405Z,995.35
2023-04-02T04:01:19.481Z,995.40
2023-04-02T04:02:19.622Z,995.39
2023-04-02T04:03:19.586Z,995.43
2023-04-02T04:04:19.760Z,995.53
2023-04-02T04:05:19.778Z,995.49
2023-04-02T04:06:20.247Z,995.54
2023-04-02T04:07:19.898Z,995.54
2023-04-02T04:08:19.974Z,995.57
2023-04-02T04:09:20.036Z,995.59
2023-04-02T04:10:20.127Z,995.61
2023-04-02T04:11:20.316Z,995.58
2023-04-02T04:12:20.275Z,995.59
2023-04-02T04:13:20.371Z,995.63
2023-04-02T04:14:20.445Z,995.60
2023-04-02T04:15:20.495Z,995.66
2023-04-02T04:16:20.616Z,995.72
2023-04-02T04:17:20.658Z,995.72
2023-04-02T04:18:20.749Z,995.73
2023-04-02T04:19:20.909Z,995.75
2023-04-02T04:20:20.884Z,995.75
2023-04-02T04:21:20.962Z,995.82
2023-04-02T04:22:21.055Z,995.84
2023-04-02T04:23:21.139Z,995.82
2023-04-02T04:24:21.246Z,995.83
2023-04-02T04:25:21.314Z,995.89
2023-04-02T04:26:21.491Z,995.93
2023-04-02T04:27:21.470Z,995.91
2023-04-02T04:28:21.567Z,995.90
2023-04-02T04:29:21.621Z,995.97
2023-04-02T04:30:21.705Z,995.95
2023-04-02T04:31:22.827Z,995.97
2023-04-02T04:32:21.870Z,996.04
2023-04-02T04:33:21.923Z,996.12
2023-04-02T04:34:22.025Z,996.13
2023-04-02T04:35:22.094Z,996.14
2023-04-02T04:36:22.224Z,996.15
2023-04-02T04:37:22.248Z,996.13
2023-04-02T04:38:22.346Z,996.17
2023-04-02T04:39:22.413Z,996.22
2023-04-02T04:40:22.508Z,996.23
2023-04-02T04:41:22.623Z,996.22
2023-04-02T04:42:22.702Z,996.27
2023-04-02T04:43:22.757Z,996.31
2023-04-02T04:44:22.872Z,996.31
2023-04-02T04:45:22.926Z,996.34
2023-04-02T04:46:23.087Z,996.40
2023-04-02T04:47:23.151Z,996.38
2023-04-02T04:48:23.177Z,996.41
2023-04-02T04:49:23.242Z,996.44
2023-04-02T04:50:23.331Z,996.47
2023-04-02T04:51:23.407Z,996.47
2023-04-02T04:52:23.499Z,996.50
2023-04-02T04:53:23.592Z,996.50
2023-04-02T04:54:23.640Z,996.52
2023-04-02T04:55:23.722Z,996.55
2023-04-02T04:56:23.803Z,996.58
2023-04-02T04:57:23.884Z,996.60
2023-04-02T04:58:23.966Z,996.67
2023-04-02T04:59:24.017Z,996.66
2023-04-02T05:00:24.081Z,996.67
2023-04-02T05:01:24.200Z,996.70
2023-04-02T05:02:24.312Z,996.77
2023-04-02T05:03:24.318Z,996.75
2023-04-02T05:04:24.428Z,996.79
2023-04-02T05:05:24.508Z,996.77
2023-04-02T05:06:24.592Z,996.78
2023-04-02T05:07:24.656Z,996.83
2023-04-02T05:08:24.746Z,996.85
2023-04-02T05:09:24.834Z,996.82
2023-04-02T05:10:24.910Z,996.81
2023-04-02T05:11:25.005Z,996.89
2023-04-02T05:12:25.097Z,996.93
2023-04-02T05:13:25.170Z,996.96
2023-04-02T05:14:25.252Z,996.92
2023-04-02T05:15:25.320Z,996.97
2023-04-02T05:16:25.477Z,997.01
2023-04-02T05:17:25.560Z,997.02
2023-04-02T05:18:25.613Z,997.01
2023-04-02T05:19:25.685Z,997.04
2023-04-02T05:20:25.763Z,997.08
2023-04-02T05:21:25.876Z,997.07
2023-04-02T05:22:25.941Z,997.05
2023-04-02T05:23:26.010Z,997.15
2023-04-02T05:24:26.088Z,997.13
2023-04-02T05:25:26.170Z,997.17
2023-04-02T05:26:26.298Z,997.20
2023-04-02T05:27:26.343Z,997.23
2023-04-02T05:28:26.454Z,997.23
2023-04-02T05:29:26.539Z,997.31
2023-04-02T05:30:26.608Z,997.32
2023-04-02T05:31:26.730Z,997.34
2023-04-02T05:32:26.798Z,997.32
2023-04-02T05:33:26.847Z,997.39
2023-04-02T05:34:26.954Z,997.35
2023-04-02T05:35:27.023Z,997.46
2023-04-02T05:36:27.182Z,997.42
2023-04-02T05:37:27.179Z,997.45
2023-04-02T05:38:27.280Z,997.49
2023-04-02T05:39:27.349Z,997.56
2023-04-02T05:40:27.427Z,997.53
2023-04-02T05:41:27.526Z,997.55
2023-04-02T05:42:27.724Z,997.56
2023-04-02T05:43:27.682Z,997.59
2023-04-02T05:44:27.754Z,997.62
2023-04-02T05:45:27.879Z,997.66
2023-04-02T05:46:27.995Z,997.59
2023-04-02T05:47:28.049Z,997.69
2023-04-02T05:48:28.114Z,997.73
2023-04-02T05:49:28.188Z,997.74
2023-04-02T05:50:28.267Z,997.75
2023-04-02T05:51:28.361Z,997.81
2023-04-02T05:52:28.422Z,997.80
2023-04-02T05:53:28.491Z,997.83
2023-04-02T05:54:28.554Z,997.83
2023-04-02T05:55:28.644Z,997.84
2023-04-02T05:56:28.737Z,997.88
2023-04-02T05:57:42.760Z,997.88
2023-04-02T05:58:36.320Z,997.86
2023-04-02T05:59:28.994Z,997.96
2023-04-02T06:00:29.057Z,997.96
2023-04-02T06:01:29.161Z,998.00
2023-04-02T06:02:29.331Z,997.96
2023-04-02T06:03:29.404Z,997.95
2023-04-02T06:04:29.371Z,998.01
2023-04-02T06:05:29.457Z,998.06
2023-04-02T06:06:29.537Z,998.06
2023-04-02T06:07:29.639Z,998.07
2023-04-02T06:08:29.687Z,998.09
2023-04-02T06:09:29.768Z,998.13
2023-04-02T06:10:29.885Z,998.15
2023-04-02T06:11:29.952Z,998.17
2023-04-02T06:12:30.021Z,998.23
2023-04-02T06:13:30.086Z,998.19
2023-04-02T06:14:30.165Z,998.21
2023-04-02T06:15:30.249Z,998.22
2023-04-02T06:16:30.393Z,998.24
2023-04-02T06:17:30.462Z,998.26
2023-04-02T06:18:30.476Z,998.26
2023-04-02T06:19:30.566Z,998.34
2023-04-02T06:20:30.632Z,998.27
2023-04-02T06:21:30.768Z,998.36
2023-04-02T06:22:30.814Z,998.37
2023-04-02T06:23:30.909Z,998.39
2023-04-02T06:24:30.954Z,998.42
2023-04-02T06:25:31.045Z,998.41
2023-04-02T06:26:31.139Z,998.46
2023-04-02T06:27:31.191Z,998.46
2023-04-02T06:28:31.262Z,998.60
2023-04-02T06:29:31.360Z,998.56
2023-04-02T06:30:31.472Z,998.56
2023-04-02T06:31:31.554Z,998.58
2023-04-02T06:32:31.611Z,998.59
2023-04-02T06:33:31.682Z,998.70
2023-04-02T06:34:31.761Z,998.68
2023-04-02T06:35:31.845Z,998.67
2023-04-02T06:36:31.952Z,998.71
2023-04-02T06:37:32.013Z,998.78
2023-04-02T06:38:32.092Z,998.78
2023-04-02T06:39:32.163Z,998.82
2023-04-02T06:40:32.235Z,998.82
2023-04-02T06:41:32.361Z,998.79
2023-04-02T06:42:32.403Z,998.91
2023-04-02T06:43:32.488Z,998.84
2023-04-02T06:44:32.575Z,998.88
2023-04-02T06:45:32.753Z,998.90
2023-04-02T06:46:32.842Z,998.91
2023-04-02T06:47:32.826Z,998.90
2023-04-02T06:48:32.873Z,998.96
2023-04-02T06:49:32.957Z,999.04
2023-04-02T06:50:33.040Z,999.05
2023-04-02T06:51:33.137Z,999.11
2023-04-02T06:52:34.913Z,999.11
2023-04-02T06:53:33.313Z,999.13
2023-04-02T06:54:33.378Z,999.15
2023-04-02T06:55:33.920Z,999.18
2023-04-02T06:56:33.545Z,999.15
2023-04-02T06:57:33.728Z,999.19
2023-04-02T06:58:33.692Z,999.24
2023-04-02T06:59:33.780Z,999.27
2023-04-02T07:00:33.870Z,999.33
2023-04-02T07:01:33.991Z,999.32
2023-04-02T07:02:34.042Z,999.29
2023-04-02T07:03:34.107Z,999.33
2023-04-02T07:04:34.217Z,999.43
2023-04-02T07:05:34.515Z,999.39
2023-04-02T07:06:34.332Z,999.40
2023-04-02T07:07:34.397Z,999.48
2023-04-02T07:08:34.466Z,999.43
2023-04-02T07:09:34.566Z,999.52
2023-04-02T07:10:34.631Z,999.56
2023-04-02T07:11:34.734Z,999.59
2023-04-02T07:12:34.796Z,999.62
2023-04-02T07:13:34.861Z,999.68
2023-04-02T07:14:34.947Z,999.62
2023-04-02T07:15:35.283Z,999.70
2023-04-02T07:16:35.109Z,999.76
2023-04-02T07:17:35.196Z,999.77
2023-04-02T07:18:35.234Z,999.82
2023-04-02T07:19:35.337Z,999.83
2023-04-02T07:20:35.407Z,999.83
2023-04-02T07:21:35.537Z,999.86
2023-04-02T07:22:35.591Z,999.90
2023-04-02T07:23:35.701Z,999.92
2023-04-02T07:24:35.746Z,999.89
2023-04-02T07:25:36.086Z,999.88
2023-04-02T07:26:35.931Z,999.98
2023-04-02T07:27:36.002Z,999.99
2023-04-02T07:28:36.107Z,1000.03
2023-04-02T07:29:36.193Z,1000.05
2023-04-02T07:30:36.259Z,1000.06
2023-04-02T07:31:36.403Z,1000.09
2023-04-02T07:32:36.458Z,1000.15
2023-04-02T07:33:36.529Z,1000.15
2023-04-02T07:34:36.592Z,1000.17
2023-04-02T07:35:37.031Z,1000.19
2023-04-02T07:36:36.787Z,1000.19
2023-04-02T07:37:36.858Z,1000.21
2023-04-02T07:38:36.896Z,1000.25
2023-04-02T07:39:38.924Z,1000.35
2023-04-02T07:40:37.085Z,1000.35
2023-04-02T07:41:37.181Z,1000.33
2023-04-02T07:42:37.242Z,1000.34
2023-04-02T07:43:37.355Z,1000.36
2023-04-02T07:44:37.445Z,1000.46
2023-04-02T07:45:37.822Z,1000.48
2023-04-02T07:46:37.784Z,1000.51
2023-04-02T07:47:37.738Z,1000.52
2023-04-02T07:48:37.781Z,1000.52
2023-04-02T07:49:37.842Z,1000.57
2023-04-02T07:50:37.915Z,1000.57
2023-04-02T07:51:38.062Z,1000.54
2023-04-02T07:52:40.263Z,1000.61
2023-04-02T07:53:38.194Z,1000.61
2023-04-02T07:54:38.268Z,1000.64
2023-04-02T07:55:38.336Z,1000.65
2023-04-02T07:56:38.408Z,1000.69
2023-04-02T07:57:38.484Z,1000.70
2023-04-02T07:58:38.533Z,1000.69
2023-04-02T07:59:38.600Z,1000.71
2023-04-02T08:00:38.691Z,1000.74
2023-04-02T08:01:38.794Z,1000.75
2023-04-02T08:02:38.836Z,1000.75
2023-04-02T08:03:38.931Z,1000.74
2023-04-02T08:04:38.973Z,1000.82
2023-04-02T08:05:39.059Z,1000.81
2023-04-02T08:06:39.143Z,1000.84
2023-04-02T08:07:39.216Z,1000.84
2023-04-02T08:08:39.285Z,1000.82
2023-04-02T08:09:39.366Z,1000.88
2023-04-02T08:10:39.434Z,1000.87
2023-04-02T08:11:39.541Z,1000.91
2023-04-02T08:12:39.585Z,1000.93
2023-04-02T08:13:39.676Z,1000.96
2023-04-02T08:14:39.753Z,1000.96
2023-04-02T08:15:39.830Z,1001.03
2023-04-02T08:16:39.931Z,1001.05
2023-04-02T08:17:39.999Z,1001.09
2023-04-02T08:18:40.034Z,1001.07
2023-04-02T08:19:53.789Z,1001.11
2023-04-02T08:20:40.202Z,1001.15
2023-04-02T08:21:40.287Z,1001.17
2023-04-02T08:22:40.356Z,1001.23
2023-04-02T08:23:40.442Z,1001.29
2023-04-02T08:24:40.521Z,1001.26
2023-04-02T08:25:40.618Z,1001.37
2023-04-02T08:26:40.687Z,1001.34
2023-04-02T08:27:40.778Z,1001.41
2023-04-02T08:28:40.846Z,1001.45
2023-04-02T08:29:40.943Z,1001.44
2023-04-02T08:30:41.062Z,1001.45
2023-04-02T08:31:41.136Z,1001.45
2023-04-02T08:32:41.318Z,1001.46
2023-04-02T08:33:41.248Z,1001.55
2023-04-02T08:34:41.321Z,1001.53
2023-04-02T08:35:41.418Z,1001.52
2023-04-02T08:36:41.508Z,1001.58
2023-04-02T08:37:41.549Z,1001.61
2023-04-02T08:38:41.620Z,1001.63
2023-04-02T08:39:41.709Z,1001.65
2023-04-02T08:40:41.794Z,1001.67
2023-04-02T08:41:41.895Z,1001.69
2023-04-02T08:42:41.953Z,1001.66
2023-04-02T08:43:42.031Z,1001.73
2023-04-02T08:44:42.082Z,1001.75
2023-04-02T08:45:42.376Z,1001.77
2023-04-02T08:46:42.257Z,1001.76
2023-04-02T08:47:42.406Z,1001.80
2023-04-02T08:48:42.749Z,1001.83
2023-04-02T08:49:42.493Z,1001.82
2023-04-02T08:50:42.554Z,1001.84
2023-04-02T08:51:42.661Z,1001.87
2023-04-02T08:52:42.694Z,1001.92
2023-04-02T08:53:42.811Z,1001.96
2023-04-02T08:54:42.845Z,1001.94
2023-04-02T08:55:43.073Z,1001.99
2023-04-02T08:56:43.045Z,1002.01
2023-04-02T08:57:43.095Z,1002.04
2023-04-02T08:58:43.173Z,1002.02
2023-04-02T08:59:43.273Z,1002.01
2023-04-02T09:00:43.358Z,1002.04
2023-04-02T09:01:43.522Z,1002.02
2023-04-02T09:02:43.593Z,1002.08
2023-04-02T09:03:43.628Z,1002.11
2023-04-02T09:04:43.782Z,1002.11
2023-04-02T09:05:43.795Z,1002.15
2023-04-02T09:06:43.901Z,1002.12
2023-04-02T09:07:43.967Z,1002.14
2023-04-02T09:08:44.045Z,1002.19
2023-04-02T09:09:44.133Z,1002.16
2023-04-02T09:10:44.227Z,1002.22
2023-04-02T09:11:44.321Z,1002.26
2023-04-02T09:12:44.395Z,1002.28
2023-04-02T09:13:44.479Z,1002.30
2023-04-02T09:14:44.540Z,1002.26
2023-04-02T09:15:44.618Z,1002.33
2023-04-02T09:16:44.725Z,1002.36
2023-04-02T09:17:53.511Z,1002.36
2023-04-02T09:18:44.947Z,1002.37
2023-04-02T09:19:44.981Z,1002.40
2023-04-02T09:20:45.091Z,1002.40
2023-04-02T09:21:45.166Z,1002.48
2023-04-02T09:22:45.214Z,1002.43
2023-04-02T09:23:45.305Z,1002.51
2023-04-02T09:24:45.372Z,1002.49
2023-04-02T09:25:54.042Z,1002.53
2023-04-02T09:26:45.568Z,1002.54
2023-04-02T09:27:45.634Z,1002.55
2023-04-02T09:28:45.707Z,1002.62
2023-04-02T09:29:45.809Z,1002.62
2023-04-02T09:30:45.874Z,1002.64
2023-04-02T09:31:46.022Z,1002.66
2023-04-02T09:32:46.094Z,1002.70
2023-04-02T09:33:46.269Z,1002.70
2023-04-02T09:34:46.216Z,1002.75
2023-04-02T09:35:46.303Z,1002.81
2023-04-02T09:36:46.374Z,1002.77
2023-04-02T09:37:46.455Z,1002.81
2023-04-02T09:38:46.525Z,1002.84
2023-04-02T09:39:46.600Z,1002.88
2023-04-02T09:40:46.679Z,1002.89
2023-04-02T09:41:55.822Z,1002.90
2023-04-02T09:42:46.829Z,1002.93
2023-04-02T09:43:46.917Z,1003.01
2023-04-02T09:44:47.012Z,1002.99
2023-04-02T09:45:47.098Z,1003.01
2023-04-02T09:46:47.202Z,1003.04
2023-04-02T09:47:47.298Z,1003.01
2023-04-02T09:48:47.350Z,1003.03
2023-04-02T09:49:47.432Z,1003.09
2023-04-02T09:50:47.515Z,1003.09
2023-04-02T09:51:47.611Z,1003.06
2023-04-02T09:52:47.637Z,1003.09
2023-04-02T09:53:47.725Z,1003.09
2023-04-02T09:54:47.795Z,1003.14
2023-04-02T09:55:47.866Z,1003.14
2023-04-02T09:56:47.986Z,1003.17
2023-04-02T09:57:48.035Z,1003.18
2023-04-02T09:58:48.131Z,1003.19
2023-04-02T09:59:48.191Z,1003.26
2023-04-02T10:00:48.309Z,1003.27
2023-04-02T10:01:48.348Z,1003.26
2023-04-02T10:02:48.421Z,1003.32
2023-04-02T10:03:48.511Z,1003.31
2023-04-02T10:04:48.774Z,1003.34
2023-04-02T10:05:48.606Z,1003.34
2023-04-02T10:06:48.706Z,1003.37
2023-04-02T10:07:48.755Z,1003.37
2023-04-02T10:08:48.870Z,1003.41
2023-04-02T10:09:48.925Z,1003.44
2023-04-02T10:10:49.009Z,1003.44
2023-04-02T10:11:49.103Z,1003.47
2023-04-02T10:12:49.177Z,1003.47
2023-04-02T10:13:49.229Z,1003.49
2023-04-02T10:14:49.306Z,1003.49
2023-04-02T10:15:49.383Z,1003.50
2023-04-02T10:16:49.507Z,1003.53
2023-04-02T10:17:49.534Z,1003.55
2023-04-02T10:18:49.617Z,1003.55
2023-04-02T10:19:49.673Z,1003.52
2023-04-02T10:20:51.537Z,1003.56
2023-04-02T10:21:49.874Z,1003.60
2023-04-02T10:22:49.930Z,1003.60
2023-04-02T10:23:50.013Z,1003.63
2023-04-02T10:24:50.114Z,1003.63
2023-04-02T10:25:50.176Z,1003.69
2023-04-02T10:26:50.264Z,1003.67
2023-04-02T10:27:50.334Z,1003.69
2023-04-02T10:28:50.417Z,1003.72
2023-04-02T10:29:50.482Z,1003.74
2023-04-02T10:30:50.606Z,1003.77
2023-04-02T10:31:50.677Z,1003.79
2023-04-02T10:32:50.821Z,1003.82
2023-04-02T10:33:50.794Z,1003.85
2023-04-02T10:34:50.894Z,1003.88
2023-04-02T10:35:50.971Z,1003.92
2023-04-02T10:36:51.068Z,1003.95
2023-04-02T10:37:51.135Z,1003.97
2023-04-02T10:38:51.232Z,1003.96
2023-04-02T10:39:51.301Z,1003.95
2023-04-02T10:40:51.394Z,1003.97
2023-04-02T10:41:51.495Z,1003.99
2023-04-02T10:42:51.570Z,1004.01
2023-04-02T10:43:51.630Z,1004.05
2023-04-02T10:44:51.736Z,1004.06
2023-04-02T10:45:51.813Z,1004.10
2023-04-02T10:46:51.893Z,1004.08
2023-04-02T10:47:51.962Z,1004.09
2023-04-02T10:48:52.048Z,1004.12
2023-04-02T10:49:52.147Z,1004.15
2023-04-02T10:50:52.188Z,1004.18
2023-04-02T10:51:52.286Z,1004.24
2023-04-02T10:52:52.360Z,1004.33
2023-04-02T10:53:52.420Z,1004.33
2023-04-02T10:54:52.540Z,1004.33
2023-04-02T10:55:52.598Z,1004.38
2023-04-02T10:56:52.769Z,1004.37
2023-04-02T10:57:52.769Z,1004.43
2023-04-02T10:58:53.822Z,1004.38
2023-04-02T10:59:52.955Z,1004.42
2023-04-02T11:00:53.036Z,1004.36
2023-04-02T11:01:53.342Z,1004.44
2023-04-02T11:02:53.321Z,1004.43
2023-04-02T11:03:53.329Z,1004.46
2023-04-02T11:04:54.344Z,1004.42
2023-04-02T11:05:53.444Z,1004.47
2023-04-02T11:07:00.587Z,1004.48
2023-04-02T11:07:53.619Z,1004.53
2023-04-02T11:08:53.683Z,1004.46
2023-04-02T11:09:53.770Z,1004.50
2023-04-02T11:10:53.860Z,1004.53
2023-04-02T11:11:53.945Z,1004.57
2023-04-02T11:12:54.032Z,1004.58
2023-04-02T11:13:54.114Z,1004.57
2023-04-02T11:14:54.207Z,1004.61
2023-04-02T11:15:54.362Z,1004.65
2023-04-02T11:16:54.376Z,1004.67
2023-04-02T11:17:54.499Z,1004.70
2023-04-02T11:18:54.533Z,1004.70
2023-04-02T11:19:54.622Z,1004.72
2023-04-02T11:20:54.700Z,1004.72
2023-04-02T11:21:59.611Z,1004.71
2023-04-02T11:22:54.859Z,1004.76
2023-04-02T11:23:54.941Z,1004.80
2023-04-02T11:24:55.048Z,1004.82
2023-04-02T11:25:55.124Z,1004.86
2023-04-02T11:26:55.236Z,1004.86
2023-04-02T11:27:55.273Z,1004.85
2023-04-02T11:28:55.362Z,1004.93
2023-04-02T11:29:55.453Z,1004.92
2023-04-02T11:30:55.552Z,1004.90
2023-04-02T11:31:55.641Z,1004.92
2023-04-02T11:32:55.801Z,1004.91
2023-04-02T11:33:55.782Z,1004.92
2023-04-02T11:35:06.540Z,1004.92
2023-04-02T11:35:55.948Z,1004.97
2023-04-02T11:36:56.030Z,1004.98
2023-04-02T11:37:56.109Z,1004.97
2023-04-02T11:39:04.486Z,1004.98
2023-04-02T11:39:56.263Z,1004.94
2023-04-02T11:40:56.349Z,1004.96
2023-04-02T11:41:56.434Z,1004.94
2023-04-02T11:42:56.516Z,1004.99
2023-04-02T11:43:56.576Z,1005.01
2023-04-02T11:44:56.661Z,1005.05
2023-04-02T11:45:56.916Z,1004.98
2023-04-02T11:46:56.871Z,1004.99
2023-04-02T11:47:56.920Z,1005.03
2023-04-02T11:48:56.999Z,1005.04
2023-04-02T11:49:57.089Z,1005.00
2023-04-02T11:50:57.162Z,1005.02
2023-04-02T11:52:09.039Z,1005.02
2023-04-02T11:52:57.342Z,1005.04
2023-04-02T11:53:57.405Z,1005.04
2023-04-02T11:54:57.510Z,1005.11
2023-04-02T11:55:57.593Z,1005.06
2023-04-02T11:56:57.692Z,1005.04
2023-04-02T11:57:57.733Z,1005.09
2023-04-02T11:58:57.811Z,1005.06
2023-04-02T11:59:57.896Z,1005.07
2023-04-02T12:00:57.986Z,1005.02
2023-04-02T12:01:58.240Z,1005.13
2023-04-02T12:02:58.174Z,1005.12
2023-04-02T12:03:58.234Z,1005.10
2023-04-02T12:04:58.358Z,1005.13
2023-04-02T12:05:58.398Z,1005.18
2023-04-02T12:06:58.521Z,1005.13
2023-04-02T12:07:58.602Z,1005.19
2023-04-02T12:08:58.675Z,1005.20
2023-04-02T12:09:58.748Z,1005.26
2023-04-02T12:10:58.822Z,1005.22
2023-04-02T12:11:58.923Z,1005.22
2023-04-02T12:12:59.104Z,1005.21
2023-04-02T12:13:59.063Z,1005.22
2023-04-02T12:14:59.153Z,1005.26
2023-04-02T12:15:59.211Z,1005.29
2023-04-02T12:16:59.358Z,1005.33
2023-04-02T12:17:59.399Z,1005.31
2023-04-02T12:18:59.462Z,1005.36
2023-04-02T12:19:59.519Z,1005.36
2023-04-02T12:20:59.635Z,1005.43